Time;durP1;ratioP1;P1;durP2;ratioP2;P2;SDS_P1;SDS_P2;PMS_P1;PMS_P2;Temp;Humidity;BMP_temperature;BMP_pressure;BME280_temperature;BME280_humidity;BME280_pressure;Samples;Min_cycle;Max_cycle;Signal;HPM_P1;HPM_P2
2023/07/01 00:01:24;;;;;;;10.83;2.60;;;17.80;99.90;;;;;;4917328;28;20437;-87
2023/07/01 00:03:49;;;;;;;7.33;2.87;;;17.80;99.90;;;;;;4917586;29;20517;-86
2023/07/01 00:06:15;;;;;;;8.40;2.97;;;17.80;99.90;;;;;;4934911;28;20427;-83
2023/07/01 00:08:41;;;;;;;7.88;2.70;;;17.80;99.90;;;;;;4934709;29;20475;-86
2023/07/01 00:11:07;;;;;;;5.88;2.67;;;17.80;99.90;;;;;;4907904;28;20435;-84
2023/07/01 00:13:33;;;;;;;5.53;2.20;;;17.90;99.90;;;;;;4922430;29;20509;-87
2023/07/01 00:15:59;;;;;;;6.75;1.98;;;17.80;99.90;;;;;;4936090;28;20514;-81
2023/07/01 00:18:25;;;;;;;8.43;2.60;;;17.80;99.90;;;;;;4935603;28;20427;-84
2023/07/01 00:20:51;;;;;;;11.38;3.22;;;17.80;99.90;;;;;;4902171;29;20442;-83
2023/07/01 00:23:17;;;;;;;5.93;2.85;;;17.80;99.90;;;;;;4920134;28;20514;-88
2023/07/01 00:25:43;;;;;;;9.70;3.08;;;17.80;99.90;;;;;;4934175;28;20449;-86
2023/07/01 00:28:09;;;;;;;6.13;2.67;;;17.80;99.90;;;;;;4932916;28;20443;-89
2023/07/01 00:30:35;;;;;;;8.90;2.97;;;17.70;99.90;;;;;;4947923;28;20439;-87
2023/07/01 00:33:02;;;;;;;8.10;3.67;;;17.70;99.90;;;;;;4921230;28;20518;-84
2023/07/01 00:35:28;;;;;;;9.30;2.50;;;17.70;99.90;;;;;;4920665;28;20471;-84
2023/07/01 00:37:54;;;;;;;7.45;2.08;;;17.70;99.90;;;;;;4934018;28;20428;-87
2023/07/01 00:40:20;;;;;;;10.30;2.70;;;17.70;99.90;;;;;;4915129;28;20563;-81
2023/07/01 00:42:46;;;;;;;9.65;2.83;;;17.60;99.90;;;;;;4934925;28;20447;-86
2023/07/01 00:45:11;;;;;;;5.53;2.37;;;17.70;99.90;;;;;;4940960;28;20444;-89
2023/07/01 00:47:40;;;;;;;7.13;2.50;;;17.70;99.90;;;;;;4971346;28;20496;-85
2023/07/01 00:50:11;;;;;;;7.03;2.53;;;17.70;99.90;;;;;;4912706;29;20447;-85
2023/07/01 00:52:42;;;;;;;7.30;2.58;;;17.70;99.90;;;;;;4925946;29;20442;-84
2023/07/01 00:55:09;;;;;;;7.13;2.65;;;17.70;99.90;;;;;;4933738;28;20441;-88
2023/07/01 00:57:36;;;;;;;10.25;3.47;;;17.60;99.90;;;;;;4977251;28;20418;-82
2023/07/01 01:00:04;;;;;;;5.28;2.50;;;17.60;99.90;;;;;;4970848;28;20431;-82
2023/07/01 01:02:46;;;;;;;10.43;2.63;;;17.60;99.90;;;;;;4921623;28;20503;-82
2023/07/01 01:05:17;;;;;;;5.70;2.20;;;17.60;99.90;;;;;;4948435;28;20535;-81
2023/07/01 01:07:51;;;;;;;7.93;2.50;;;17.50;99.90;;;;;;4931858;28;20949;-84
2023/07/01 01:10:25;;;;;;;6.88;2.55;;;17.50;99.90;;;;;;4913529;29;20448;-86
2023/07/01 01:12:57;;;;;;;9.90;2.65;;;17.60;99.90;;;;;;4991259;23;20443;-89
2023/07/01 01:15:25;;;;;;;5.82;2.35;;;17.50;99.90;;;;;;4923964;29;20821;-83
2023/07/01 01:17:54;;;;;;;8.27;2.47;;;17.40;99.90;;;;;;4925985;28;20533;-87
2023/07/01 01:20:21;;;;;;;7.22;2.50;;;17.40;99.90;;;;;;4923926;28;20476;-87
2023/07/01 01:23:01;;;;;;;7.90;2.85;;;17.50;99.90;;;;;;4908270;28;20448;-87
2023/07/01 01:25:32;;;;;;;9.20;3.33;;;17.30;99.90;;;;;;4916162;28;20468;-84
2023/07/01 01:27:58;;;;;;;9.27;2.72;;;17.20;99.90;;;;;;4917153;28;20509;-88
2023/07/01 01:30:24;;;;;;;5.70;2.28;;;17.20;99.90;;;;;;4971011;28;20509;-88
2023/07/01 01:32:50;;;;;;;7.15;2.50;;;17.20;99.90;;;;;;4969732;28;20472;-85
2023/07/01 01:35:16;;;;;;;4.35;2.28;;;17.20;99.90;;;;;;4954919;28;20456;-85
2023/07/01 01:37:48;;;;;;;8.77;2.83;;;17.00;99.90;;;;;;4922181;28;20448;-88
2023/07/01 01:40:29;;;;;;;9.10;3.05;;;16.90;99.90;;;;;;4910746;28;20447;-88
2023/07/01 01:43:04;;;;;;;5.35;2.72;;;16.90;99.90;;;;;;4920723;29;20429;-84
2023/07/01 01:45:31;;;;;;;6.07;2.55;;;17.00;99.90;;;;;;4973451;28;20442;-87
2023/07/01 01:47:57;;;;;;;8.82;3.20;;;17.00;99.90;;;;;;4922028;29;20449;-84
2023/07/01 01:50:24;;;;;;;11.60;3.03;;;17.00;99.90;;;;;;4931734;28;20472;-86
2023/07/01 01:52:51;;;;;;;8.05;2.67;;;17.10;99.90;;;;;;4887940;29;20433;-85
2023/07/01 01:55:19;;;;;;;8.35;3.63;;;17.10;99.90;;;;;;4921038;28;20524;-85
2023/07/01 01:57:45;;;;;;;6.00;2.83;;;17.10;99.90;;;;;;4907560;28;21181;-88
2023/07/01 02:00:13;;;;;;;8.05;3.05;;;17.10;99.90;;;;;;4988927;28;20441;-88
2023/07/01 02:02:39;;;;;;;8.48;2.80;;;17.20;99.90;;;;;;4908701;28;20449;-89
2023/07/01 02:05:05;;;;;;;8.00;2.65;;;17.20;99.90;;;;;;4955620;28;20437;-84
2023/07/01 02:07:31;;;;;;;6.68;2.85;;;17.20;99.90;;;;;;4935547;28;20425;-89
2023/07/01 02:09:57;;;;;;;4.93;2.80;;;17.20;99.90;;;;;;4950266;28;20440;-85
2023/07/01 02:12:23;;;;;;;5.87;2.70;;;17.20;99.90;;;;;;4939991;28;20442;-85
2023/07/01 02:14:49;;;;;;;6.70;2.50;;;17.20;99.90;;;;;;4937364;28;20441;-84
2023/07/01 02:17:15;;;;;;;6.68;2.63;;;17.30;99.90;;;;;;4986200;28;20425;-88
2023/07/01 02:19:41;;;;;;;6.40;2.87;;;17.30;99.90;;;;;;4945114;28;20458;-83
2023/07/01 02:22:06;;;;;;;4.90;2.72;;;17.30;99.90;;;;;;4912356;29;20523;-81
2023/07/01 02:24:32;;;;;;;9.07;2.85;;;17.30;99.90;;;;;;4985664;28;20463;-81
2023/07/01 02:26:59;;;;;;;6.07;3.85;;;17.30;99.90;;;;;;4928765;28;20425;-82
2023/07/01 02:29:25;;;;;;;6.60;2.80;;;17.30;99.90;;;;;;4962667;28;20441;-82
2023/07/01 02:31:51;;;;;;;7.50;3.50;;;17.30;99.90;;;;;;4907376;29;20962;-84
2023/07/01 02:34:27;;;;;;;7.50;3.60;;;17.30;99.90;;;;;;4923659;29;20434;-84
2023/07/01 02:36:54;;;;;;;7.15;2.97;;;17.30;99.90;;;;;;4920885;28;20421;-87
2023/07/01 02:39:19;;;;;;;6.90;3.00;;;17.20;99.90;;;;;;4919620;29;20449;-86
2023/07/01 02:41:45;;;;;;;9.30;3.20;;;17.30;99.90;;;;;;4932631;28;20442;-84
2023/07/01 02:44:11;;;;;;;8.88;2.92;;;17.30;99.90;;;;;;4923915;29;20440;-83
2023/07/01 02:46:37;;;;;;;13.80;4.50;;;17.20;99.90;;;;;;4918036;29;20787;-85
2023/07/01 02:49:04;;;;;;;8.98;3.78;;;17.20;99.90;;;;;;4917758;29;20448;-80
2023/07/01 02:51:30;;;;;;;8.00;3.75;;;17.20;99.90;;;;;;4918180;29;20413;-85
2023/07/01 02:53:55;;;;;;;10.87;4.20;;;17.00;99.90;;;;;;4918686;29;21020;-84
2023/07/01 02:56:21;;;;;;;7.97;4.23;;;17.10;99.90;;;;;;4919293;29;20462;-85
2023/07/01 02:58:47;;;;;;;9.30;4.70;;;17.00;99.90;;;;;;4919076;28;20440;-84
2023/07/01 03:01:13;;;;;;;13.35;5.60;;;16.90;99.90;;;;;;4958178;28;20412;-82
2023/07/01 03:03:40;;;;;;;12.45;5.43;;;16.80;99.90;;;;;;4931669;28;20584;-88
2023/07/01 03:06:06;;;;;;;9.40;5.43;;;16.80;99.90;;;;;;4942283;28;20449;-86
2023/07/01 03:08:32;;;;;;;12.27;5.20;;;16.70;99.90;;;;;;4918091;28;20911;-85
2023/07/01 03:10:58;;;;;;;6.57;4.80;;;16.60;99.90;;;;;;4902352;28;20433;-83
2023/07/01 03:13:23;;;;;;;9.43;5.40;;;16.50;99.90;;;;;;4907380;28;20461;-85
2023/07/01 03:15:50;;;;;;;9.93;5.67;;;16.60;99.90;;;;;;5000273;28;20428;-87
2023/07/01 03:18:15;;;;;;;7.20;6.30;;;16.50;99.90;;;;;;4974339;28;20428;-84
2023/07/01 03:20:41;;;;;;;10.95;6.38;;;16.40;99.90;;;;;;4938076;28;20433;-86
2023/07/01 03:23:07;;;;;;;10.67;6.53;;;16.30;99.90;;;;;;4974854;28;20419;-83
2023/07/01 03:25:33;;;;;;;10.73;7.13;;;16.40;99.90;;;;;;4992136;28;20537;-83
2023/07/01 03:27:58;;;;;;;8.52;7.20;;;16.40;99.90;;;;;;4932376;29;20418;-83
2023/07/01 03:30:29;;;;;;;9.13;7.07;;;16.30;99.90;;;;;;4956162;28;20452;-84
2023/07/01 03:32:56;;;;;;;9.27;7.40;;;16.20;99.90;;;;;;4924812;29;20429;-84
2023/07/01 03:35:22;;;;;;;13.02;7.95;;;16.20;99.90;;;;;;4932758;28;20437;-85
2023/07/01 03:37:48;;;;;;;12.47;7.33;;;16.10;99.90;;;;;;4910134;28;20476;-87
2023/07/01 03:40:14;;;;;;;10.70;8.13;;;16.20;99.90;;;;;;4913969;29;20421;-84
2023/07/01 03:42:40;;;;;;;12.20;7.80;;;16.10;99.90;;;;;;4932808;28;20451;-85
2023/07/01 03:45:08;;;;;;;10.65;7.57;;;16.10;99.90;;;;;;4917514;28;20444;-81
2023/07/01 03:47:44;;;;;;;11.00;8.13;;;16.10;99.90;;;;;;4954403;28;20469;-81
2023/07/01 03:50:10;;;;;;;9.50;8.55;;;16.10;99.90;;;;;;4916310;28;20454;-86
2023/07/01 03:52:40;;;;;;;9.75;7.82;;;16.00;99.90;;;;;;4904999;28;20928;-82
2023/07/01 03:55:08;;;;;;;11.63;8.13;;;16.10;99.90;;;;;;4932674;28;20470;-83
2023/07/01 03:57:34;;;;;;;11.50;8.27;;;16.10;99.90;;;;;;4940593;29;20445;-84
2023/07/01 04:00:01;;;;;;;11.57;7.63;;;15.90;99.90;;;;;;4932043;28;20428;-82
2023/07/01 04:02:27;;;;;;;11.65;8.20;;;15.80;99.90;;;;;;4946968;28;20451;-86
2023/07/01 04:04:52;;;;;;;12.02;8.13;;;15.90;99.90;;;;;;4929375;28;20453;-88
2023/07/01 04:07:21;;;;;;;9.25;7.90;;;15.90;99.90;;;;;;4999469;28;20508;-83
2023/07/01 04:09:50;;;;;;;8.43;7.57;;;15.80;99.90;;;;;;4915852;28;20544;-82
2023/07/01 04:12:16;;;;;;;11.40;7.53;;;15.90;99.90;;;;;;4915227;29;20435;-85
2023/07/01 04:14:43;;;;;;;11.93;8.35;;;15.80;99.90;;;;;;4916335;28;20445;-84
2023/07/01 04:17:09;;;;;;;11.13;7.35;;;15.90;99.90;;;;;;4899092;28;20456;-83
2023/07/01 04:19:35;;;;;;;10.43;7.20;;;15.90;99.90;;;;;;4948022;28;20433;-83
2023/07/01 04:22:01;;;;;;;14.20;7.95;;;15.80;99.90;;;;;;5018220;28;20420;-84
2023/07/01 04:24:27;;;;;;;9.88;7.95;;;15.80;99.90;;;;;;4939513;28;20452;-85
2023/07/01 04:26:52;;;;;;;11.77;8.50;;;15.80;99.90;;;;;;4920568;28;20512;-79
2023/07/01 04:29:18;;;;;;;11.27;8.13;;;15.80;99.90;;;;;;4948686;28;20448;-84
2023/07/01 04:31:44;;;;;;;10.18;8.90;;;15.90;99.90;;;;;;4918517;29;20487;-86
2023/07/01 04:34:09;;;;;;;11.95;8.43;;;15.90;99.90;;;;;;4938786;28;20429;-87
2023/07/01 04:36:35;;;;;;;11.85;8.82;;;15.80;99.90;;;;;;4926871;28;20440;-87
2023/07/01 04:39:01;;;;;;;10.13;8.33;;;15.90;99.90;;;;;;4926525;28;20441;-85
2023/07/01 04:41:26;;;;;;;11.55;8.65;;;15.90;99.90;;;;;;4919339;28;20441;-82
2023/07/01 04:43:52;;;;;;;13.30;8.85;;;15.80;99.90;;;;;;4919502;29;20444;-85
2023/07/01 04:46:18;;;;;;;11.25;9.07;;;15.80;99.90;;;;;;4923291;28;20488;-87
2023/07/01 04:48:44;;;;;;;13.03;9.30;;;15.80;99.90;;;;;;4975709;28;20500;-82
2023/07/01 04:51:09;;;;;;;13.30;9.83;;;15.80;99.90;;;;;;4950445;28;20467;-91
2023/07/01 04:53:39;;;;;;;11.98;9.60;;;15.80;99.90;;;;;;4927971;28;20444;-83
2023/07/01 04:56:05;;;;;;;14.60;10.53;;;15.70;99.90;;;;;;4908641;28;20437;-87
2023/07/01 04:58:30;;;;;;;19.67;10.93;;;15.90;99.90;;;;;;4968144;28;20522;-86
2023/07/01 05:00:56;;;;;;;13.70;9.83;;;15.80;99.90;;;;;;4901387;28;20449;-85
2023/07/01 05:03:22;;;;;;;12.40;10.45;;;15.80;99.90;;;;;;4904573;28;20461;-85
2023/07/01 05:05:48;;;;;;;11.48;9.43;;;15.80;99.90;;;;;;4968192;28;20435;-86
2023/07/01 05:08:13;;;;;;;11.55;10.38;;;15.80;99.90;;;;;;5018433;28;20421;-84
2023/07/01 05:10:39;;;;;;;13.90;9.40;;;15.90;99.90;;;;;;4944201;28;20440;-89
2023/07/01 05:13:05;;;;;;;12.93;10.63;;;15.90;99.90;;;;;;4981527;28;20409;-84
2023/07/01 05:15:30;;;;;;;13.13;10.48;;;15.90;99.90;;;;;;4998015;28;20502;-81
2023/07/01 05:17:56;;;;;;;16.90;10.68;;;16.00;99.90;;;;;;4908385;29;20426;-84
2023/07/01 05:20:22;;;;;;;11.85;9.75;;;15.90;99.90;;;;;;4900754;28;20441;-80
2023/07/01 05:22:48;;;;;;;12.87;11.00;;;15.90;99.90;;;;;;4980866;28;20426;-80
2023/07/01 05:25:13;;;;;;;12.70;11.40;;;15.90;99.90;;;;;;4931905;29;20662;-83
2023/07/01 05:27:39;;;;;;;17.55;11.75;;;15.90;99.90;;;;;;4916119;28;20457;-84
2023/07/01 05:30:05;;;;;;;14.77;11.20;;;15.90;99.90;;;;;;4892248;29;20439;-86
2023/07/01 05:32:31;;;;;;;12.40;10.85;;;15.90;99.90;;;;;;4919953;29;20425;-82
2023/07/01 05:34:57;;;;;;;13.38;11.93;;;15.90;99.90;;;;;;4889876;29;20430;-86
2023/07/01 05:37:23;;;;;;;12.20;10.95;;;16.10;99.90;;;;;;4919710;28;20437;-88
2023/07/01 05:39:48;;;;;;;12.15;10.85;;;16.10;99.90;;;;;;4919850;29;20452;-84
2023/07/01 05:42:14;;;;;;;14.37;12.23;;;16.00;99.90;;;;;;4983351;28;20421;-85
2023/07/01 05:44:40;;;;;;;13.47;12.23;;;16.00;99.90;;;;;;4946663;28;20915;-88
2023/07/01 05:47:05;;;;;;;13.77;11.38;;;16.10;99.90;;;;;;4943839;28;20459;-84
2023/07/01 05:49:31;;;;;;;13.55;12.13;;;16.20;99.90;;;;;;4898444;28;20446;-85
2023/07/01 05:51:57;;;;;;;19.73;12.73;;;16.20;99.90;;;;;;4948076;28;20464;-85
2023/07/01 05:54:23;;;;;;;13.57;12.23;;;16.10;99.90;;;;;;4904390;28;20437;-85
2023/07/01 05:56:48;;;;;;;13.40;12.03;;;16.10;99.90;;;;;;4936640;28;20421;-87
2023/07/01 05:59:14;;;;;;;19.05;13.35;;;16.10;99.90;;;;;;4960019;28;20445;-84
2023/07/01 06:01:40;;;;;;;14.40;12.00;;;16.10;99.90;;;;;;4931820;28;20513;-87
2023/07/01 06:04:06;;;;;;;13.35;11.80;;;16.20;99.90;;;;;;4983273;28;20430;-84
2023/07/01 06:06:32;;;;;;;14.75;11.52;;;16.20;99.90;;;;;;4959807;28;20465;-87
2023/07/01 06:08:57;;;;;;;19.05;12.88;;;16.20;99.90;;;;;;4886686;29;20959;-83
2023/07/01 06:11:23;;;;;;;16.30;13.60;;;16.20;99.90;;;;;;4928677;28;20444;-81
2023/07/01 06:13:49;;;;;;;13.47;12.13;;;16.30;99.90;;;;;;4917306;28;20433;-84
2023/07/01 06:16:15;;;;;;;13.07;11.70;;;16.30;99.90;;;;;;4919439;28;20529;-83
2023/07/01 06:18:41;;;;;;;13.37;11.43;;;16.20;99.90;;;;;;4912030;28;20910;-80
2023/07/01 06:21:08;;;;;;;13.93;12.45;;;16.40;99.90;;;;;;4911095;29;20432;-81
2023/07/01 06:23:37;;;;;;;13.15;11.07;;;16.30;99.90;;;;;;4913387;29;20510;-85
2023/07/01 06:26:03;;;;;;;12.40;11.10;;;16.30;99.90;;;;;;4970258;28;20525;-86
2023/07/01 06:28:29;;;;;;;14.13;12.80;;;16.30;99.90;;;;;;4902406;28;20495;-86
2023/07/01 06:30:55;;;;;;;13.35;11.95;;;16.40;99.90;;;;;;4907319;28;20453;-83
2023/07/01 06:33:21;;;;;;;13.45;11.35;;;16.40;99.90;;;;;;4920407;28;20430;-88
2023/07/01 06:35:47;;;;;;;11.90;10.48;;;16.50;99.90;;;;;;4914974;28;20449;-88
2023/07/01 06:38:13;;;;;;;9.87;8.97;;;16.40;99.90;;;;;;4952377;28;20460;-84
2023/07/01 06:40:38;;;;;;;12.93;11.57;;;16.50;99.90;;;;;;4942004;28;20498;-86
2023/07/01 06:43:04;;;;;;;10.70;9.70;;;16.50;99.90;;;;;;4914150;29;20519;-84
2023/07/01 06:45:33;;;;;;;10.32;9.32;;;16.50;99.90;;;;;;4920527;28;20436;-84
2023/07/01 06:47:59;;;;;;;10.13;9.23;;;16.50;99.90;;;;;;5016786;28;20424;-81
2023/07/01 06:50:25;;;;;;;9.52;8.63;;;16.50;99.90;;;;;;5003362;28;20445;-82
2023/07/01 06:52:51;;;;;;;8.35;7.65;;;16.60;99.90;;;;;;4972785;28;20413;-86
2023/07/01 06:55:17;;;;;;;9.15;8.20;;;16.70;99.90;;;;;;4895849;29;20417;-80
2023/07/01 06:57:43;;;;;;;9.32;8.35;;;16.50;99.90;;;;;;4921539;28;20434;-86
2023/07/01 07:00:12;;;;;;;7.95;7.18;;;16.60;99.90;;;;;;4975747;28;20484;-85
2023/07/01 07:02:38;;;;;;;8.55;7.13;;;16.70;99.90;;;;;;4929666;29;20436;-84
2023/07/01 07:05:05;;;;;;;7.88;7.20;;;16.50;99.90;;;;;;4913844;28;20483;-86
2023/07/01 07:07:32;;;;;;;7.97;7.20;;;16.70;99.90;;;;;;4922044;28;20460;-84
2023/07/01 07:09:57;;;;;;;7.82;7.13;;;16.70;99.90;;;;;;4895498;29;20449;-87
2023/07/01 07:12:24;;;;;;;7.67;7.00;;;16.70;99.90;;;;;;4934649;28;20439;-80
2023/07/01 07:14:50;;;;;;;7.57;6.87;;;16.70;99.90;;;;;;5002022;28;20521;-86
2023/07/01 07:17:16;;;;;;;8.00;7.20;;;16.70;99.90;;;;;;4930509;28;20933;-83
2023/07/01 07:19:42;;;;;;;5.78;5.38;;;16.80;99.90;;;;;;4956037;28;20433;-83
2023/07/01 07:22:07;;;;;;;6.25;5.72;;;16.60;99.90;;;;;;4916630;28;20418;-86
2023/07/01 07:24:33;;;;;;;7.05;6.40;;;16.80;99.90;;;;;;4947631;28;20502;-85
2023/07/01 07:27:01;;;;;;;7.07;6.47;;;16.90;99.90;;;;;;4921735;29;20425;-86
2023/07/01 07:29:33;;;;;;;6.60;6.10;;;16.80;99.90;;;;;;4922795;28;20476;-84
2023/07/01 07:31:59;;;;;;;7.27;6.57;;;16.80;99.90;;;;;;4901353;29;20429;-85
2023/07/01 07:34:26;;;;;;;6.90;6.30;;;16.90;99.90;;;;;;4906848;29;20505;-88
2023/07/01 07:36:52;;;;;;;6.33;5.73;;;16.90;99.90;;;;;;4913627;28;20479;-85
2023/07/01 07:39:18;;;;;;;6.63;6.03;;;17.00;99.90;;;;;;4988671;28;20436;-83
2023/07/01 07:41:45;;;;;;;6.18;5.60;;;17.10;99.90;;;;;;5002641;28;20416;-85
2023/07/01 07:44:11;;;;;;;6.28;5.65;;;17.00;99.90;;;;;;4990714;28;20428;-88
2023/07/01 07:46:38;;;;;;;6.00;5.50;;;17.00;99.90;;;;;;4921767;28;20548;-84
2023/07/01 07:49:05;;;;;;;6.10;5.60;;;17.00;99.90;;;;;;4930177;28;20454;-89
2023/07/01 07:51:31;;;;;;;5.15;4.78;;;17.00;99.90;;;;;;4917401;29;20418;-83
2023/07/01 07:53:57;;;;;;;5.72;5.00;;;17.00;99.90;;;;;;4913385;28;20777;-83
2023/07/01 07:56:23;;;;;;;5.15;4.75;;;17.20;99.90;;;;;;4913874;28;20461;-83
2023/07/01 07:58:48;;;;;;;6.00;5.50;;;17.30;99.90;;;;;;4954813;28;20468;-81
2023/07/01 08:01:14;;;;;;;5.87;5.43;;;17.10;99.90;;;;;;4912541;28;20504;-82
2023/07/01 08:03:40;;;;;;;5.93;5.43;;;17.10;99.90;;;;;;4982678;28;20444;-85
2023/07/01 08:06:06;;;;;;;5.23;4.77;;;17.30;99.90;;;;;;4917773;29;20418;-84
2023/07/01 08:08:33;;;;;;;5.40;4.90;;;17.30;99.90;;;;;;4927200;28;20525;-88
2023/07/01 08:10:59;;;;;;;4.57;4.28;;;17.20;99.90;;;;;;4893014;28;20518;-81
2023/07/01 08:13:25;;;;;;;4.72;4.40;;;17.30;99.90;;;;;;4916514;28;20428;-84
2023/07/01 08:15:51;;;;;;;4.47;4.07;;;17.30;99.90;;;;;;4916216;29;20460;-84
2023/07/01 08:18:17;;;;;;;4.85;4.45;;;17.40;99.90;;;;;;4917085;28;20437;-85
2023/07/01 08:20:46;;;;;;;5.45;4.95;;;17.50;99.90;;;;;;4935529;28;20435;-85
2023/07/01 08:23:13;;;;;;;4.93;4.53;;;17.40;99.90;;;;;;4949538;28;20421;-86
2023/07/01 08:25:40;;;;;;;4.93;4.53;;;17.60;99.90;;;;;;4950842;28;20441;-85
2023/07/01 08:28:06;;;;;;;5.03;4.53;;;17.40;99.90;;;;;;4927440;29;20449;-81
2023/07/01 08:30:32;;;;;;;3.55;3.25;;;17.50;99.90;;;;;;5021497;28;20920;-84
2023/07/01 08:32:58;;;;;;;4.30;3.90;;;17.40;99.90;;;;;;4958863;28;20443;-84
2023/07/01 08:35:23;;;;;;;3.70;3.40;;;17.70;99.90;;;;;;4997388;28;20442;-86
2023/07/01 08:37:49;;;;;;;4.28;3.92;;;17.70;99.90;;;;;;4992411;28;20429;-86
2023/07/01 08:40:16;;;;;;;5.60;3.88;;;17.80;99.90;;;;;;4928571;28;20445;-84
2023/07/01 08:42:55;;;;;;;3.40;3.10;;;17.70;99.90;;;;;;4943773;28;20431;-85
2023/07/01 08:45:22;;;;;;;3.38;3.08;;;17.70;99.90;;;;;;4916369;28;20431;-84
2023/07/01 08:47:49;;;;;;;2.70;2.45;;;17.70;99.90;;;;;;4888208;29;20431;-88
2023/07/01 08:50:29;;;;;;;3.33;2.67;;;17.90;99.90;;;;;;4916251;28;20442;-88
2023/07/01 08:53:03;;;;;;;3.20;2.10;;;17.70;99.90;;;;;;4921608;29;20996;-85
2023/07/01 08:55:30;;;;;;;2.28;2.08;;;17.80;99.90;;;;;;4908651;29;20769;-87
2023/07/01 08:57:55;;;;;;;3.30;2.25;;;17.70;99.90;;;;;;4908025;29;20440;-84
2023/07/01 09:00:22;;;;;;;2.22;2.05;;;18.00;99.90;;;;;;4925137;29;20480;-88
2023/07/01 09:02:48;;;;;;;2.95;2.22;;;17.90;99.90;;;;;;4927102;28;20426;-82
2023/07/01 09:05:14;;;;;;;2.20;2.00;;;18.00;99.90;;;;;;4906303;29;20452;-89
2023/07/01 09:07:43;;;;;;;2.33;2.13;;;18.00;99.90;;;;;;4907938;28;20429;-84
2023/07/01 09:10:11;;;;;;;1.97;1.87;;;18.00;99.90;;;;;;4914725;28;20758;-87
2023/07/01 09:12:37;;;;;;;2.78;1.85;;;17.70;99.90;;;;;;4918412;28;20465;-81
2023/07/01 09:15:06;;;;;;;1.40;1.25;;;17.90;99.90;;;;;;4927226;28;20433;-83
2023/07/01 09:17:36;;;;;;;1.10;0.98;;;18.10;99.90;;;;;;4895186;28;20422;-87
2023/07/01 09:20:09;;;;;;;2.17;0.65;;;17.90;99.90;;;;;;4923781;28;20436;-88
2023/07/01 09:22:37;;;;;;;0.90;0.60;;;18.10;99.90;;;;;;4899235;29;20442;-81
2023/07/01 09:25:03;;;;;;;0.70;0.70;;;18.10;99.90;;;;;;4934494;28;20534;-81
2023/07/01 09:27:55;;;;;;;0.98;0.80;;;18.00;99.90;;;;;;4931673;28;20819;-82
2023/07/01 09:30:27;;;;;;;1.25;0.90;;;18.30;99.90;;;;;;4923325;28;20450;-86
2023/07/01 09:33:12;;;;;;;1.15;1.00;;;18.20;99.90;;;;;;4918926;28;20475;-88
2023/07/01 09:35:42;;;;;;;1.20;1.10;;;18.20;99.90;;;;;;4909305;28;20506;-85
2023/07/01 09:38:09;;;;;;;2.00;1.25;;;18.30;99.90;;;;;;4910130;28;20437;-84
2023/07/01 09:40:35;;;;;;;1.50;1.27;;;18.40;99.90;;;;;;4932447;28;20496;-83
2023/07/01 09:43:01;;;;;;;1.27;1.20;;;18.40;99.90;;;;;;4908373;28;20520;-85
2023/07/01 09:45:27;;;;;;;1.38;1.27;;;18.30;99.90;;;;;;4912242;28;20441;-86
2023/07/01 09:47:53;;;;;;;2.17;1.20;;;18.30;99.90;;;;;;4923038;29;20498;-85
2023/07/01 09:50:30;;;;;;;1.30;1.00;;;18.40;99.90;;;;;;4899121;29;20470;-89
2023/07/01 09:52:57;;;;;;;3.80;1.52;;;18.30;99.90;;;;;;4923166;29;20456;-82
2023/07/01 09:55:23;;;;;;;4.22;2.92;;;18.50;99.90;;;;;;4913018;28;20439;-85
2023/07/01 09:57:50;;;;;;;4.57;2.50;;;18.30;99.90;;;;;;5007030;28;20421;-84
2023/07/01 10:00:16;;;;;;;3.30;2.30;;;18.50;99.90;;;;;;4960499;28;20507;-79
2023/07/01 10:02:46;;;;;;;3.80;2.90;;;18.30;99.90;;;;;;4924438;28;20425;-76
2023/07/01 10:05:15;;;;;;;4.83;3.50;;;18.40;99.90;;;;;;4908543;29;20471;-75
2023/07/01 10:07:42;;;;;;;3.10;2.70;;;18.60;99.90;;;;;;4928148;28;20864;-79
2023/07/01 10:10:18;;;;;;;2.80;2.58;;;18.60;99.90;;;;;;4961033;28;20492;-76
2023/07/01 10:12:45;;;;;;;3.50;3.17;;;18.60;99.90;;;;;;4910535;28;20469;-76
2023/07/01 10:15:13;;;;;;;3.53;3.03;;;18.70;99.90;;;;;;4907783;29;20792;-75
2023/07/01 10:18:20;;;;;;;4.30;3.60;;;18.90;99.90;;;;;;4908051;29;20933;-77
2023/07/01 10:20:46;;;;;;;4.70;3.40;;;18.80;99.90;;;;;;4905684;28;20447;-75
2023/07/01 10:23:12;;;;;;;4.70;4.28;;;18.90;99.90;;;;;;4911183;28;20507;-78
2023/07/01 10:25:39;;;;;;;4.65;4.10;;;18.90;99.90;;;;;;4910167;28;20556;-77
2023/07/01 10:28:12;;;;;;;4.47;4.05;;;19.00;99.90;;;;;;4906810;29;20421;-78
2023/07/01 10:30:44;;;;;;;6.13;4.85;;;18.90;99.90;;;;;;4912244;28;20460;-77
2023/07/01 10:33:33;;;;;;;5.57;5.03;;;18.80;99.90;;;;;;4953532;28;20424;-76
2023/07/01 10:36:09;;;;;;;4.88;4.43;;;18.80;99.90;;;;;;4908184;28;20512;-76
2023/07/01 10:38:36;;;;;;;4.77;4.37;;;18.70;99.90;;;;;;4909894;29;20421;-77
2023/07/01 10:41:03;;;;;;;4.57;3.58;;;18.90;99.90;;;;;;4908573;29;20465;-76
2023/07/01 10:43:36;;;;;;;3.35;2.58;;;18.80;99.90;;;;;;4907036;29;20998;-76
2023/07/01 10:46:10;;;;;;;4.18;2.40;;;18.70;99.90;;;;;;4922284;28;20431;-77
2023/07/01 10:48:43;;;;;;;4.63;3.08;;;18.60;99.90;;;;;;4935983;28;21023;-77
2023/07/01 10:51:13;;;;;;;5.03;3.35;;;18.70;99.90;;;;;;4907199;29;20430;-77
2023/07/01 10:54:07;;;;;;;4.57;3.22;;;18.50;99.90;;;;;;4909789;29;21024;-76
2023/07/01 10:56:39;;;;;;;3.85;3.55;;;18.80;99.90;;;;;;4906306;29;20437;-76
2023/07/01 10:59:25;;;;;;;4.82;3.38;;;18.90;99.90;;;;;;4909920;29;20908;-78
2023/07/01 11:01:56;;;;;;;3.75;3.45;;;18.70;99.90;;;;;;4929118;28;20742;-77
2023/07/01 11:04:23;;;;;;;4.50;4.10;;;19.00;99.90;;;;;;4907930;28;20894;-76
2023/07/01 11:06:54;;;;;;;4.68;4.10;;;19.10;99.90;;;;;;4902170;28;20433;-74
2023/07/01 11:09:32;;;;;;;4.70;4.30;;;19.20;99.90;;;;;;4934439;28;20796;-78
2023/07/01 11:12:03;;;;;;;4.72;4.32;;;19.40;99.90;;;;;;4925792;28;21004;-75
2023/07/01 11:14:34;;;;;;;5.65;4.63;;;19.40;99.90;;;;;;4996589;28;20976;-74
2023/07/01 11:17:13;;;;;;;6.55;5.05;;;19.30;99.90;;;;;;4916124;28;20465;-77
2023/07/01 11:19:39;;;;;;;5.10;4.70;;;19.40;99.90;;;;;;4908954;29;20520;-79
2023/07/01 11:22:05;;;;;;;6.03;5.20;;;19.20;99.90;;;;;;4966222;28;20490;-77
2023/07/01 11:24:31;;;;;;;6.05;5.45;;;19.20;99.90;;;;;;4898907;28;20511;-76
2023/07/01 11:27:07;;;;;;;7.32;6.10;;;19.20;99.90;;;;;;4899377;28;20435;-78
2023/07/01 11:29:33;;;;;;;6.10;5.53;;;19.20;99.90;;;;;;4904705;29;20979;-80
2023/07/01 11:32:01;;;;;;;7.93;5.93;;;19.10;99.90;;;;;;4895735;28;20422;-78
2023/07/01 11:34:30;;;;;;;7.47;5.90;;;18.90;99.90;;;;;;4890697;28;20429;-76
2023/07/01 11:36:57;;;;;;;8.83;6.30;;;19.00;99.90;;;;;;4906782;29;20936;-77
2023/07/01 11:39:24;;;;;;;6.50;6.00;;;19.00;99.90;;;;;;4906351;28;20418;-77
2023/07/01 11:41:51;;;;;;;7.70;6.10;;;19.10;99.90;;;;;;4908122;28;21023;-77
2023/07/01 11:44:23;;;;;;;10.27;8.13;;;19.40;99.90;;;;;;4903744;28;20437;-76
2023/07/01 11:46:49;;;;;;;9.10;7.20;;;19.80;99.90;;;;;;4906793;29;20508;-77
2023/07/01 11:49:30;;;;;;;8.77;7.55;;;19.80;99.90;;;;;;4907653;29;20441;-76
2023/07/01 11:52:00;;;;;;;8.00;6.78;;;19.70;99.90;;;;;;4903455;28;20422;-76
2023/07/01 11:54:44;;;;;;;11.07;7.00;;;19.50;99.90;;;;;;4896521;29;21103;-77
2023/07/01 11:57:18;;;;;;;15.77;7.13;;;19.40;99.90;;;;;;4901393;28;20948;-77
2023/07/01 11:59:48;;;;;;;8.85;5.43;;;19.40;99.90;;;;;;4907995;28;20857;-77
2023/07/01 12:02:15;;;;;;;7.20;5.00;;;19.50;99.90;;;;;;4880249;29;20900;-77
2023/07/01 12:04:41;;;;;;;7.20;4.65;;;19.50;99.90;;;;;;4906579;29;20414;-76
2023/07/01 12:07:08;;;;;;;5.63;4.30;;;19.70;99.90;;;;;;4908174;29;20765;-78
2023/07/01 12:09:34;;;;;;;6.85;4.50;;;19.70;99.90;;;;;;4965917;28;20501;-77
2023/07/01 12:12:00;;;;;;;7.00;4.10;;;19.60;99.90;;;;;;4893488;28;20437;-77
2023/07/01 12:14:25;;;;;;;7.35;4.78;;;19.40;99.90;;;;;;4905285;28;20523;-77
2023/07/01 12:16:52;;;;;;;7.40;3.27;;;19.40;99.90;;;;;;4908148;28;20776;-77
2023/07/01 12:19:22;;;;;;;6.90;4.90;;;19.30;99.90;;;;;;4907869;29;20425;-77
2023/07/01 12:21:50;;;;;;;4.65;3.15;;;19.20;99.90;;;;;;4994065;28;20482;-78
2023/07/01 12:24:19;;;;;;;4.65;3.40;;;19.50;99.90;;;;;;4939815;28;20428;-79
2023/07/01 12:26:50;;;;;;;4.53;3.53;;;19.40;99.90;;;;;;4918950;28;20433;-82
2023/07/01 12:29:16;;;;;;;6.18;3.22;;;19.50;99.90;;;;;;4909378;28;20438;-78
2023/07/01 12:31:43;;;;;;;11.02;4.80;;;19.60;99.90;;;;;;4909254;28;20441;-79
2023/07/01 12:34:09;;;;;;;6.38;3.45;;;19.60;99.90;;;;;;4908472;28;21064;-79
2023/07/01 12:36:38;;;;;;;3.60;3.30;;;19.60;99.90;;;;;;4908814;28;20505;-79
2023/07/01 12:39:05;;;;;;;6.18;3.50;;;19.60;99.90;;;;;;4909446;28;20440;-78
2023/07/01 12:41:31;;;;;;;5.35;3.60;;;19.50;99.90;;;;;;4986725;28;20445;-80
2023/07/01 12:43:57;;;;;;;2.97;2.65;;;19.20;99.90;;;;;;4909585;28;20445;-79
2023/07/01 12:46:23;;;;;;;6.50;3.90;;;19.30;99.90;;;;;;4893095;29;20428;-78